sensor_id;sensor_type;location;lat;lon;timestamp;P1;durP1;ratioP1;P2;durP2;ratioP2
12363;SDS011;6246;50.826;4.712;2023-04-01T00:00:16;2.97;;;1.27;;
12363;SDS011;6246;50.826;4.712;2023-04-01T00:02:42;3.00;;;1.23;;
12363;SDS011;6246;50.826;4.712;2023-04-01T00:05:08;2.60;;;1.10;;
12363;SDS011;6246;50.826;4.712;2023-04-01T00:07:38;2.57;;;1.00;;
12363;SDS011;6246;50.826;4.712;2023-04-01T00:10:05;1.97;;;0.80;;
12363;SDS011;6246;50.826;4.712;2023-04-01T00:12:31;3.63;;;1.60;;
12363;SDS011;6246;50.826;4.712;2023-04-01T00:14:58;3.17;;;0.83;;
12363;SDS011;6246;50.826;4.712;2023-04-01T00:17:24;2.83;;;1.33;;
12363;SDS011;6246;50.826;4.712;2023-04-01T00:19:51;2.10;;;1.17;;
12363;SDS011;6246;50.826;4.712;2023-04-01T00:22:17;2.50;;;0.90;;
12363;SDS011;6246;50.826;4.712;2023-04-01T00:24:43;2.30;;;0.83;;
12363;SDS011;6246;50.826;4.712;2023-04-01T00:27:10;4.23;;;1.10;;
12363;SDS011;6246;50.826;4.712;2023-04-01T00:29:36;1.87;;;0.97;;
12363;SDS011;6246;50.826;4.712;2023-04-01T00:32:02;1.97;;;1.10;;
12363;SDS011;6246;50.826;4.712;2023-04-01T00:34:28;2.77;;;0.90;;
12363;SDS011;6246;50.826;4.712;2023-04-01T00:36:54;3.10;;;0.80;;
12363;SDS011;6246;50.826;4.712;2023-04-01T00:39:20;2.67;;;1.30;;
12363;SDS011;6246;50.826;4.712;2023-04-01T00:41:47;0.97;;;0.70;;
12363;SDS011;6246;50.826;4.712;2023-04-01T00:44:20;2.43;;;1.00;;
12363;SDS011;6246;50.826;4.712;2023-04-01T00:46:47;2.37;;;1.13;;
12363;SDS011;6246;50.826;4.712;2023-04-01T00:49:13;1.10;;;0.57;;
12363;SDS011;6246;50.826;4.712;2023-04-01T00:51:40;2.60;;;1.00;;
12363;SDS011;6246;50.826;4.712;2023-04-01T00:54:07;1.60;;;0.50;;
12363;SDS011;6246;50.826;4.712;2023-04-01T00:56:35;1.37;;;0.77;;
12363;SDS011;6246;50.826;4.712;2023-04-01T00:59:04;1.53;;;0.87;;
12363;SDS011;6246;50.826;4.712;2023-04-01T01:01:33;2.03;;;1.00;;
12363;SDS011;6246;50.826;4.712;2023-04-01T01:04:00;1.77;;;1.17;;
12363;SDS011;6246;50.826;4.712;2023-04-01T01:06:43;1.50;;;0.80;;
12363;SDS011;6246;50.826;4.712;2023-04-01T01:11:48;2.27;;;0.97;;
12363;SDS011;6246;50.826;4.712;2023-04-01T01:17:10;3.20;;;1.23;;
12363;SDS011;6246;50.826;4.712;2023-04-01T01:27:25;1.80;;;1.03;;
12363;SDS011;6246;50.826;4.712;2023-04-01T01:33:09;1.40;;;0.90;;
12363;SDS011;6246;50.826;4.712;2023-04-01T01:37:39;1.07;;;0.70;;
12363;SDS011;6246;50.826;4.712;2023-04-01T01:40:07;1.47;;;0.53;;
12363;SDS011;6246;50.826;4.712;2023-04-01T01:42:37;1.33;;;0.73;;
12363;SDS011;6246;50.826;4.712;2023-04-01T01:45:04;1.53;;;0.50;;
12363;SDS011;6246;50.826;4.712;2023-04-01T01:47:30;1.43;;;0.70;;
12363;SDS011;6246;50.826;4.712;2023-04-01T01:49:56;1.60;;;1.03;;
12363;SDS011;6246;50.826;4.712;2023-04-01T01:52:23;1.43;;;0.90;;
12363;SDS011;6246;50.826;4.712;2023-04-01T01:54:50;2.10;;;0.70;;
12363;SDS011;6246;50.826;4.712;2023-04-01T01:57:16;2.03;;;0.73;;
12363;SDS011;6246;50.826;4.712;2023-04-01T01:59:43;1.93;;;0.87;;
12363;SDS011;6246;50.826;4.712;2023-04-01T02:02:11;1.43;;;0.70;;
12363;SDS011;6246;50.826;4.712;2023-04-01T02:04:39;1.90;;;0.83;;
12363;SDS011;6246;50.826;4.712;2023-04-01T02:07:07;2.87;;;1.13;;
12363;SDS011;6246;50.826;4.712;2023-04-01T02:09:34;0.77;;;0.77;;
12363;SDS011;6246;50.826;4.712;2023-04-01T02:12:04;2.27;;;0.67;;
12363;SDS011;6246;50.826;4.712;2023-04-01T02:14:49;2.07;;;1.00;;
12363;SDS011;6246;50.826;4.712;2023-04-01T02:17:18;2.93;;;1.00;;
12363;SDS011;6246;50.826;4.712;2023-04-01T02:19:55;1.33;;;0.57;;
12363;SDS011;6246;50.826;4.712;2023-04-01T02:22:25;0.27;;;0.27;;
12363;SDS011;6246;50.826;4.712;2023-04-01T02:24:52;1.47;;;0.70;;
12363;SDS011;6246;50.826;4.712;2023-04-01T02:27:19;2.03;;;0.80;;
12363;SDS011;6246;50.826;4.712;2023-04-01T02:29:45;0.90;;;0.60;;
12363;SDS011;6246;50.826;4.712;2023-04-01T02:32:11;0.67;;;0.53;;
12363;SDS011;6246;50.826;4.712;2023-04-01T02:34:38;1.30;;;0.60;;
12363;SDS011;6246;50.826;4.712;2023-04-01T02:37:05;1.93;;;0.87;;
12363;SDS011;6246;50.826;4.712;2023-04-01T02:39:31;0.87;;;0.60;;
12363;SDS011;6246;50.826;4.712;2023-04-01T02:41:57;1.83;;;0.80;;
12363;SDS011;6246;50.826;4.712;2023-04-01T02:44:23;1.40;;;0.83;;
12363;SDS011;6246;50.826;4.712;2023-04-01T02:46:49;1.43;;;0.60;;
12363;SDS011;6246;50.826;4.712;2023-04-01T02:49:15;1.50;;;0.77;;
12363;SDS011;6246;50.826;4.712;2023-04-01T02:51:41;1.70;;;0.70;;
12363;SDS011;6246;50.826;4.712;2023-04-01T02:54:07;1.13;;;0.50;;
12363;SDS011;6246;50.826;4.712;2023-04-01T02:56:33;1.30;;;0.70;;
12363;SDS011;6246;50.826;4.712;2023-04-01T02:58:59;0.80;;;0.70;;
12363;SDS011;6246;50.826;4.712;2023-04-01T03:01:25;0.87;;;0.60;;
12363;SDS011;6246;50.826;4.712;2023-04-01T03:03:51;1.07;;;0.90;;
12363;SDS011;6246;50.826;4.712;2023-04-01T03:06:17;1.43;;;0.60;;
12363;SDS011;6246;50.826;4.712;2023-04-01T03:08:43;0.63;;;0.40;;
12363;SDS011;6246;50.826;4.712;2023-04-01T03:11:10;2.10;;;0.47;;
12363;SDS011;6246;50.826;4.712;2023-04-01T03:13:36;1.03;;;0.47;;
12363;SDS011;6246;50.826;4.712;2023-04-01T03:16:02;1.53;;;0.77;;
12363;SDS011;6246;50.826;4.712;2023-04-01T03:18:28;1.23;;;0.40;;
12363;SDS011;6246;50.826;4.712;2023-04-01T03:20:54;0.50;;;0.50;;
12363;SDS011;6246;50.826;4.712;2023-04-01T03:23:20;0.97;;;0.43;;
12363;SDS011;6246;50.826;4.712;2023-04-01T03:25:47;0.87;;;0.67;;
12363;SDS011;6246;50.826;4.712;2023-04-01T03:28:13;0.87;;;0.50;;
12363;SDS011;6246;50.826;4.712;2023-04-01T03:30:39;0.93;;;0.90;;
12363;SDS011;6246;50.826;4.712;2023-04-01T03:33:05;0.60;;;0.60;;
12363;SDS011;6246;50.826;4.712;2023-04-01T03:35:32;0.67;;;0.53;;
12363;SDS011;6246;50.826;4.712;2023-04-01T03:37:58;0.67;;;0.50;;
12363;SDS011;6246;50.826;4.712;2023-04-01T03:40:24;0.90;;;0.60;;
12363;SDS011;6246;50.826;4.712;2023-04-01T03:42:51;1.07;;;0.60;;
12363;SDS011;6246;50.826;4.712;2023-04-01T03:45:17;0.50;;;0.50;;
12363;SDS011;6246;50.826;4.712;2023-04-01T03:47:43;0.87;;;0.47;;
12363;SDS011;6246;50.826;4.712;2023-04-01T03:50:10;1.50;;;0.60;;
12363;SDS011;6246;50.826;4.712;2023-04-01T03:52:36;0.50;;;0.50;;
12363;SDS011;6246;50.826;4.712;2023-04-01T03:55:02;1.17;;;0.70;;
12363;SDS011;6246;50.826;4.712;2023-04-01T03:57:30;0.77;;;0.60;;
12363;SDS011;6246;50.826;4.712;2023-04-01T03:59:56;0.67;;;0.50;;
12363;SDS011;6246;50.826;4.712;2023-04-01T04:02:22;0.40;;;0.40;;
12363;SDS011;6246;50.826;4.712;2023-04-01T04:04:48;1.47;;;0.60;;
12363;SDS011;6246;50.826;4.712;2023-04-01T04:07:14;1.80;;;0.67;;
12363;SDS011;6246;50.826;4.712;2023-04-01T04:09:40;0.40;;;0.40;;
12363;SDS011;6246;50.826;4.712;2023-04-01T04:12:06;0.27;;;0.27;;
12363;SDS011;6246;50.826;4.712;2023-04-01T04:14:32;1.50;;;0.50;;
12363;SDS011;6246;50.826;4.712;2023-04-01T04:16:58;0.97;;;0.60;;
12363;SDS011;6246;50.826;4.712;2023-04-01T04:19:24;0.93;;;0.60;;
12363;SDS011;6246;50.826;4.712;2023-04-01T04:21:50;0.97;;;0.43;;
12363;SDS011;6246;50.826;4.712;2023-04-01T04:24:16;0.73;;;0.43;;
12363;SDS011;6246;50.826;4.712;2023-04-01T04:26:42;1.13;;;0.70;;
12363;SDS011;6246;50.826;4.712;2023-04-01T04:29:08;1.43;;;0.50;;
12363;SDS011;6246;50.826;4.712;2023-04-01T04:31:34;1.50;;;0.47;;
12363;SDS011;6246;50.826;4.712;2023-04-01T04:34:00;0.63;;;0.40;;
12363;SDS011;6246;50.826;4.712;2023-04-01T04:36:26;0.70;;;0.60;;
12363;SDS011;6246;50.826;4.712;2023-04-01T04:38:52;0.40;;;0.40;;
12363;SDS011;6246;50.826;4.712;2023-04-01T04:41:18;0.80;;;0.50;;
12363;SDS011;6246;50.826;4.712;2023-04-01T04:43:50;0.77;;;0.43;;
12363;SDS011;6246;50.826;4.712;2023-04-01T04:46:16;1.27;;;0.70;;
12363;SDS011;6246;50.826;4.712;2023-04-01T04:48:42;0.40;;;0.40;;
12363;SDS011;6246;50.826;4.712;2023-04-01T04:51:11;0.80;;;0.70;;
12363;SDS011;6246;50.826;4.712;2023-04-01T04:53:38;0.63;;;0.40;;
12363;SDS011;6246;50.826;4.712;2023-04-01T04:56:04;0.87;;;0.53;;
12363;SDS011;6246;50.826;4.712;2023-04-01T04:58:30;0.87;;;0.60;;
12363;SDS011;6246;50.826;4.712;2023-04-01T05:00:56;0.53;;;0.40;;
12363;SDS011;6246;50.826;4.712;2023-04-01T05:03:22;0.93;;;0.50;;
12363;SDS011;6246;50.826;4.712;2023-04-01T05:05:52;0.87;;;0.80;;
12363;SDS011;6246;50.826;4.712;2023-04-01T05:08:18;0.70;;;0.40;;
12363;SDS011;6246;50.826;4.712;2023-04-01T05:10:44;1.17;;;0.70;;
12363;SDS011;6246;50.826;4.712;2023-04-01T05:13:10;0.80;;;0.47;;
12363;SDS011;6246;50.826;4.712;2023-04-01T05:15:36;0.40;;;0.40;;
12363;SDS011;6246;50.826;4.712;2023-04-01T05:18:02;0.67;;;0.40;;
12363;SDS011;6246;50.826;4.712;2023-04-01T05:20:28;1.17;;;0.60;;
12363;SDS011;6246;50.826;4.712;2023-04-01T05:22:58;0.70;;;0.70;;
12363;SDS011;6246;50.826;4.712;2023-04-01T05:25:24;0.80;;;0.57;;
12363;SDS011;6246;50.826;4.712;2023-04-01T05:27:50;0.30;;;0.30;;
12363;SDS011;6246;50.826;4.712;2023-04-01T05:30:16;0.60;;;0.43;;
12363;SDS011;6246;50.826;4.712;2023-04-01T05:32:42;0.50;;;0.50;;
12363;SDS011;6246;50.826;4.712;2023-04-01T05:35:09;1.37;;;0.60;;
12363;SDS011;6246;50.826;4.712;2023-04-01T05:37:36;0.40;;;0.23;;
12363;SDS011;6246;50.826;4.712;2023-04-01T05:40:02;0.90;;;0.60;;
12363;SDS011;6246;50.826;4.712;2023-04-01T05:42:29;0.77;;;0.47;;
12363;SDS011;6246;50.826;4.712;2023-04-01T05:44:55;0.83;;;0.70;;
12363;SDS011;6246;50.826;4.712;2023-04-01T05:47:21;0.40;;;0.40;;
12363;SDS011;6246;50.826;4.712;2023-04-01T05:49:48;0.50;;;0.40;;
12363;SDS011;6246;50.826;4.712;2023-04-01T05:52:14;0.77;;;0.60;;
12363;SDS011;6246;50.826;4.712;2023-04-01T05:54:40;1.03;;;0.50;;
12363;SDS011;6246;50.826;4.712;2023-04-01T05:57:06;1.00;;;0.50;;
12363;SDS011;6246;50.826;4.712;2023-04-01T05:59:32;0.50;;;0.33;;
12363;SDS011;6246;50.826;4.712;2023-04-01T06:01:59;0.53;;;0.50;;
12363;SDS011;6246;50.826;4.712;2023-04-01T06:04:26;0.67;;;0.37;;
12363;SDS011;6246;50.826;4.712;2023-04-01T06:06:55;0.53;;;0.30;;
12363;SDS011;6246;50.826;4.712;2023-04-01T06:09:24;0.37;;;0.23;;
12363;SDS011;6246;50.826;4.712;2023-04-01T06:14:39;0.63;;;0.57;;
12363;SDS011;6246;50.826;4.712;2023-04-01T06:45:16;0.73;;;0.50;;
12363;SDS011;6246;50.826;4.712;2023-04-01T06:50:34;0.30;;;0.30;;
12363;SDS011;6246;50.826;4.712;2023-04-01T06:55:37;0.83;;;0.40;;
12363;SDS011;6246;50.826;4.712;2023-04-01T06:58:06;1.63;;;0.53;;
12363;SDS011;6246;50.826;4.712;2023-04-01T07:00:37;0.60;;;0.40;;
12363;SDS011;6246;50.826;4.712;2023-04-01T07:05:31;0.37;;;0.37;;
12363;SDS011;6246;50.826;4.712;2023-04-01T07:07:59;0.43;;;0.43;;
12363;SDS011;6246;50.826;4.712;2023-04-01T07:13:10;0.77;;;0.60;;
12363;SDS011;6246;50.826;4.712;2023-04-01T07:15:39;0.40;;;0.40;;
12363;SDS011;6246;50.826;4.712;2023-04-01T07:18:19;0.97;;;0.60;;
12363;SDS011;6246;50.826;4.712;2023-04-01T07:20:47;0.67;;;0.40;;
12363;SDS011;6246;50.826;4.712;2023-04-01T07:25:44;0.50;;;0.50;;
12363;SDS011;6246;50.826;4.712;2023-04-01T07:28:14;0.40;;;0.40;;
12363;SDS011;6246;50.826;4.712;2023-04-01T07:33:16;0.20;;;0.20;;
12363;SDS011;6246;50.826;4.712;2023-04-01T07:35:57;0.93;;;0.47;;
12363;SDS011;6246;50.826;4.712;2023-04-01T07:46:38;0.70;;;0.43;;
12363;SDS011;6246;50.826;4.712;2023-04-01T07:49:30;0.40;;;0.40;;
12363;SDS011;6246;50.826;4.712;2023-04-01T07:51:59;0.50;;;0.40;;
12363;SDS011;6246;50.826;4.712;2023-04-01T07:54:35;0.50;;;0.30;;
12363;SDS011;6246;50.826;4.712;2023-04-01T07:59:55;0.93;;;0.77;;
12363;SDS011;6246;50.826;4.712;2023-04-01T08:02:33;0.67;;;0.53;;
12363;SDS011;6246;50.826;4.712;2023-04-01T08:05:06;0.50;;;0.50;;
12363;SDS011;6246;50.826;4.712;2023-04-01T08:13:03;1.30;;;0.40;;
12363;SDS011;6246;50.826;4.712;2023-04-01T08:15:37;0.93;;;0.50;;
12363;SDS011;6246;50.826;4.712;2023-04-01T08:20:41;0.53;;;0.47;;
12363;SDS011;6246;50.826;4.712;2023-04-01T08:25:37;0.70;;;0.50;;
12363;SDS011;6246;50.826;4.712;2023-04-01T08:30:45;2.37;;;0.53;;
12363;SDS011;6246;50.826;4.712;2023-04-01T08:35:45;0.90;;;0.40;;
12363;SDS011;6246;50.826;4.712;2023-04-01T08:38:23;1.40;;;0.47;;
12363;SDS011;6246;50.826;4.712;2023-04-01T08:40:57;0.50;;;0.30;;
12363;SDS011;6246;50.826;4.712;2023-04-01T08:51:26;0.67;;;0.47;;
12363;SDS011;6246;50.826;4.712;2023-04-01T09:04:22;0.27;;;0.23;;
12363;SDS011;6246;50.826;4.712;2023-04-01T09:09:21;0.40;;;0.30;;
12363;SDS011;6246;50.826;4.712;2023-04-01T09:17:21;0.50;;;0.27;;
12363;SDS011;6246;50.826;4.712;2023-04-01T09:20:00;0.60;;;0.43;;
12363;SDS011;6246;50.826;4.712;2023-04-01T09:27:43;0.40;;;0.40;;
12363;SDS011;6246;50.826;4.712;2023-04-01T09:32:52;0.40;;;0.40;;
12363;SDS011;6246;50.826;4.712;2023-04-01T09:35:36;0.50;;;0.20;;
12363;SDS011;6246;50.826;4.712;2023-04-01T09:38:14;0.97;;;0.30;;
12363;SDS011;6246;50.826;4.712;2023-04-01T09:50:42;0.20;;;0.20;;
12363;SDS011;6246;50.826;4.712;2023-04-01T10:06:48;0.43;;;0.33;;
12363;SDS011;6246;50.826;4.712;2023-04-01T10:09:28;0.20;;;0.20;;
12363;SDS011;6246;50.826;4.712;2023-04-01T10:32:12;0.20;;;0.20;;
12363;SDS011;6246;50.826;4.712;2023-04-01T10:37:49;0.30;;;0.30;;
12363;SDS011;6246;50.826;4.712;2023-04-01T10:40:17;0.20;;;0.20;;
12363;SDS011;6246;50.826;4.712;2023-04-01T10:53:34;0.27;;;0.20;;
12363;SDS011;6246;50.826;4.712;2023-04-01T10:58:56;0.43;;;0.20;;
12363;SDS011;6246;50.826;4.712;2023-04-01T11:17:19;0.20;;;0.20;;
12363;SDS011;6246;50.826;4.712;2023-04-01T11:28:20;0.60;;;0.40;;
12363;SDS011;6246;50.826;4.712;2023-04-01T11:33:36;0.50;;;0.37;;
12363;SDS011;6246;50.826;4.712;2023-04-01T11:44:20;0.50;;;0.50;;
12363;SDS011;6246;50.826;4.712;2023-04-01T12:08:10;0.20;;;0.20;;
12363;SDS011;6246;50.826;4.712;2023-04-01T12:10:44;0.40;;;0.40;;
12363;SDS011;6246;50.826;4.712;2023-04-01T12:15:59;0.20;;;0.20;;
12363;SDS011;6246;50.826;4.712;2023-04-01T12:21:13;0.27;;;0.27;;
12363;SDS011;6246;50.826;4.712;2023-04-01T12:29:23;0.40;;;0.20;;
12363;SDS011;6246;50.826;4.712;2023-04-01T12:37:10;1.03;;;0.30;;
12363;SDS011;6246;50.826;4.712;2023-04-01T12:42:10;0.20;;;0.20;;
12363;SDS011;6246;50.826;4.712;2023-04-01T12:47:33;0.27;;;0.27;;
12363;SDS011;6246;50.826;4.712;2023-04-01T12:50:15;0.77;;;0.30;;
12363;SDS011;6246;50.826;4.712;2023-04-01T12:52:58;0.30;;;0.30;;
12363;SDS011;6246;50.826;4.712;2023-04-01T12:55:38;0.30;;;0.30;;
12363;SDS011;6246;50.826;4.712;2023-04-01T13:19:52;0.40;;;0.40;;
12363;SDS011;6246;50.826;4.712;2023-04-01T13:22:41;0.57;;;0.37;;
12363;SDS011;6246;50.826;4.712;2023-04-01T13:27:51;0.10;;;0.10;;
12363;SDS011;6246;50.826;4.712;2023-04-01T13:43:45;0.30;;;0.27;;
12363;SDS011;6246;50.826;4.712;2023-04-01T13:54:01;0.30;;;0.30;;
12363;SDS011;6246;50.826;4.712;2023-04-01T14:25:31;0.40;;;0.40;;
12363;SDS011;6246;50.826;4.712;2023-04-01T14:28:07;0.30;;;0.30;;
12363;SDS011;6246;50.826;4.712;2023-04-01T14:30:40;0.30;;;0.20;;
12363;SDS011;6246;50.826;4.712;2023-04-01T14:35:38;0.40;;;0.40;;
12363;SDS011;6246;50.826;4.712;2023-04-01T14:43:42;0.33;;;0.33;;
12363;SDS011;6246;50.826;4.712;2023-04-01T14:48:48;1.07;;;0.40;;
12363;SDS011;6246;50.826;4.712;2023-04-01T14:51:16;0.40;;;0.40;;
12363;SDS011;6246;50.826;4.712;2023-04-01T14:56:42;0.37;;;0.30;;
12363;SDS011;6246;50.826;4.712;2023-04-01T15:01:49;0.50;;;0.50;;
12363;SDS011;6246;50.826;4.712;2023-04-01T15:14:50;0.43;;;0.30;;
12363;SDS011;6246;50.826;4.712;2023-04-01T15:17:23;0.20;;;0.20;;
12363;SDS011;6246;50.826;4.712;2023-04-01T15:42:55;0.30;;;0.30;;
12363;SDS011;6246;50.826;4.712;2023-04-01T15:45:31;0.60;;;0.47;;
12363;SDS011;6246;50.826;4.712;2023-04-01T16:11:49;0.30;;;0.30;;
12363;SDS011;6246;50.826;4.712;2023-04-01T16:14:21;0.53;;;0.53;;
12363;SDS011;6246;50.826;4.712;2023-04-01T16:16:59;0.40;;;0.40;;
12363;SDS011;6246;50.826;4.712;2023-04-01T16:24:40;0.43;;;0.40;;
12363;SDS011;6246;50.826;4.712;2023-04-01T16:27:14;0.47;;;0.47;;
12363;SDS011;6246;50.826;4.712;2023-04-01T16:29:46;0.33;;;0.33;;
12363;SDS011;6246;50.826;4.712;2023-04-01T16:32:27;0.70;;;0.50;;
12363;SDS011;6246;50.826;4.712;2023-04-01T16:37:46;0.40;;;0.40;;
12363;SDS011;6246;50.826;4.712;2023-04-01T16:42:47;0.40;;;0.40;;
12363;SDS011;6246;50.826;4.712;2023-04-01T16:50:39;0.40;;;0.40;;
12363;SDS011;6246;50.826;4.712;2023-04-01T16:53:08;0.50;;;0.40;;
12363;SDS011;6246;50.826;4.712;2023-04-01T16:58:02;0.30;;;0.30;;
12363;SDS011;6246;50.826;4.712;2023-04-01T17:00:50;0.33;;;0.33;;
12363;SDS011;6246;50.826;4.712;2023-04-01T17:03:34;1.13;;;0.40;;
12363;SDS011;6246;50.826;4.712;2023-04-01T17:11:31;0.50;;;0.50;;
12363;SDS011;6246;50.826;4.712;2023-04-01T17:27:28;0.50;;;0.50;;
12363;SDS011;6246;50.826;4.712;2023-04-01T17:34:54;0.33;;;0.33;;
12363;SDS011;6246;50.826;4.712;2023-04-01T17:42:46;0.10;;;0.10;;
12363;SDS011;6246;50.826;4.712;2023-04-01T18:10:23;0.63;;;0.50;;
12363;SDS011;6246;50.826;4.712;2023-04-01T18:21:35;0.60;;;0.60;;
12363;SDS011;6246;50.826;4.712;2023-04-01T18:23:30;0.60;;;0.60;;
12363;SDS011;6246;50.826;4.712;2023-04-01T18:26:43;1.00;;;0.47;;
12363;SDS011;6246;50.826;4.712;2023-04-01T18:29:12;0.57;;;0.57;;
12363;SDS011;6246;50.826;4.712;2023-04-01T18:31:41;0.67;;;0.67;;
12363;SDS011;6246;50.826;4.712;2023-04-01T18:36:42;0.67;;;0.60;;
12363;SDS011;6246;50.826;4.712;2023-04-01T18:41:40;0.47;;;0.47;;
12363;SDS011;6246;50.826;4.712;2023-04-01T18:49:30;0.67;;;0.67;;
12363;SDS011;6246;50.826;4.712;2023-04-01T18:52:08;0.50;;;0.40;;
12363;SDS011;6246;50.826;4.712;2023-04-01T18:54:41;0.50;;;0.50;;
12363;SDS011;6246;50.826;4.712;2023-04-01T18:57:12;0.40;;;0.40;;
12363;SDS011;6246;50.826;4.712;2023-04-01T18:59:58;0.83;;;0.70;;
12363;SDS011;6246;50.826;4.712;2023-04-01T19:05:02;1.50;;;0.60;;
12363;SDS011;6246;50.826;4.712;2023-04-01T19:12:46;0.40;;;0.40;;
12363;SDS011;6246;50.826;4.712;2023-04-01T19:17:45;0.60;;;0.60;;
12363;SDS011;6246;50.826;4.712;2023-04-01T19:22:49;0.50;;;0.50;;
12363;SDS011;6246;50.826;4.712;2023-04-01T19:25:23;0.63;;;0.63;;
12363;SDS011;6246;50.826;4.712;2023-04-01T19:27:52;1.00;;;0.87;;
12363;SDS011;6246;50.826;4.712;2023-04-01T19:35:42;0.50;;;0.50;;
12363;SDS011;6246;50.826;4.712;2023-04-01T19:38:13;0.60;;;0.60;;
12363;SDS011;6246;50.826;4.712;2023-04-01T19:41:01;0.70;;;0.60;;
12363;SDS011;6246;50.826;4.712;2023-04-01T19:48:54;0.60;;;0.60;;
12363;SDS011;6246;50.826;4.712;2023-04-01T19:51:25;0.80;;;0.80;;
12363;SDS011;6246;50.826;4.712;2023-04-01T19:53:59;0.60;;;0.60;;
12363;SDS011;6246;50.826;4.712;2023-04-01T19:56:36;0.60;;;0.60;;
12363;SDS011;6246;50.826;4.712;2023-04-01T20:03:57;0.70;;;0.70;;
12363;SDS011;6246;50.826;4.712;2023-04-01T20:06:38;0.83;;;0.83;;
12363;SDS011;6246;50.826;4.712;2023-04-01T20:16:47;0.70;;;0.60;;
12363;SDS011;6246;50.826;4.712;2023-04-01T20:19:21;0.60;;;0.60;;
12363;SDS011;6246;50.826;4.712;2023-04-01T20:21:51;0.70;;;0.70;;
12363;SDS011;6246;50.826;4.712;2023-04-01T20:24:20;0.50;;;0.50;;
12363;SDS011;6246;50.826;4.712;2023-04-01T20:27:23;0.60;;;0.60;;
12363;SDS011;6246;50.826;4.712;2023-04-01T20:29:47;0.77;;;0.77;;
12363;SDS011;6246;50.826;4.712;2023-04-01T20:42:34;0.80;;;0.80;;
12363;SDS011;6246;50.826;4.712;2023-04-01T20:45:14;0.60;;;0.60;;
12363;SDS011;6246;50.826;4.712;2023-04-01T20:52:56;1.60;;;0.57;;
12363;SDS011;6246;50.826;4.712;2023-04-01T20:55:30;0.70;;;0.70;;
12363;SDS011;6246;50.826;4.712;2023-04-01T20:58:08;0.80;;;0.80;;
12363;SDS011;6246;50.826;4.712;2023-04-01T21:00:45;1.10;;;0.70;;
12363;SDS011;6246;50.826;4.712;2023-04-01T21:09:09;0.67;;;0.67;;
12363;SDS011;6246;50.826;4.712;2023-04-01T21:16:33;0.80;;;0.80;;
12363;SDS011;6246;50.826;4.712;2023-04-01T21:19:08;0.60;;;0.60;;
12363;SDS011;6246;50.826;4.712;2023-04-01T21:32:18;0.67;;;0.53;;
12363;SDS011;6246;50.826;4.712;2023-04-01T21:34:50;1.13;;;0.73;;
12363;SDS011;6246;50.826;4.712;2023-04-01T21:43:20;0.87;;;0.50;;
12363;SDS011;6246;50.826;4.712;2023-04-01T21:56:43;1.10;;;1.00;;
12363;SDS011;6246;50.826;4.712;2023-04-01T22:14:41;0.97;;;0.97;;
12363;SDS011;6246;50.826;4.712;2023-04-01T22:22:18;0.80;;;0.80;;
12363;SDS011;6246;50.826;4.712;2023-04-01T22:32:41;0.77;;;0.77;;
12363;SDS011;6246;50.826;4.712;2023-04-01T22:35:14;0.60;;;0.60;;
12363;SDS011;6246;50.826;4.712;2023-04-01T22:40:27;0.80;;;0.80;;
12363;SDS011;6246;50.826;4.712;2023-04-01T22:43:00;0.53;;;0.53;;
12363;SDS011;6246;50.826;4.712;2023-04-01T22:53:25;1.13;;;1.07;;
12363;SDS011;6246;50.826;4.712;2023-04-01T22:55:57;0.50;;;0.50;;
12363;SDS011;6246;50.826;4.712;2023-04-01T22:58:33;1.30;;;1.00;;
12363;SDS011;6246;50.826;4.712;2023-04-01T23:01:01;0.57;;;0.57;;
12363;SDS011;6246;50.826;4.712;2023-04-01T23:03:31;0.63;;;0.60;;
12363;SDS011;6246;50.826;4.712;2023-04-01T23:05:59;0.70;;;0.70;;
12363;SDS011;6246;50.826;4.712;2023-04-01T23:10:55;1.00;;;0.90;;
12363;SDS011;6246;50.826;4.712;2023-04-01T23:13:24;0.77;;;0.77;;
12363;SDS011;6246;50.826;4.712;2023-04-01T23:15:52;0.73;;;0.73;;
12363;SDS011;6246;50.826;4.712;2023-04-01T23:18:27;0.80;;;0.80;;
12363;SDS011;6246;50.826;4.712;2023-04-01T23:31:18;0.70;;;0.70;;
12363;SDS011;6246;50.826;4.712;2023-04-01T23:33:58;0.67;;;0.67;;
12363;SDS011;6246;50.826;4.712;2023-04-01T23:36:24;1.43;;;1.10;;
12363;SDS011;6246;50.826;4.712;2023-04-01T23:38:50;1.10;;;0.83;;
12363;SDS011;6246;50.826;4.712;2023-04-01T23:41:22;0.70;;;0.70;;
12363;SDS011;6246;50.826;4.712;2023-04-01T23:43:52;0.70;;;0.70;;
12363;SDS011;6246;50.826;4.712;2023-04-01T23:46:20;0.70;;;0.70;;
12363;SDS011;6246;50.826;4.712;2023-04-01T23:48:46;0.70;;;0.70;;
12363;SDS011;6246;50.826;4.712;2023-04-01T23:51:22;0.90;;;0.90;;
12363;SDS011;6246;50.826;4.712;2023-04-01T23:53:56;0.77;;;0.77;;
12363;SDS011;6246;50.826;4.712;2023-04-01T23:56:22;1.20;;;1.10;;
12363;SDS011;6246;50.826;4.712;2023-04-01T23:58:49;1.00;;;1.00;;
